sensor_id;sensor_type;location;lat;lon;timestamp;P1;durP1;ratioP1;P2;durP2;ratioP2
42726;SDS011;28372;56.832;60.658;2023-06-10T00:00:04;16.63;;;8.63;;
42726;SDS011;28372;56.832;60.658;2023-06-10T00:02:38;12.85;;;7.28;;
42726;SDS011;28372;56.832;60.658;2023-06-10T00:05:07;13.27;;;7.10;;
42726;SDS011;28372;56.832;60.658;2023-06-10T00:07:36;12.02;;;6.85;;
42726;SDS011;28372;56.832;60.658;2023-06-10T00:10:05;12.82;;;7.00;;
42726;SDS011;28372;56.832;60.658;2023-06-10T00:12:33;12.50;;;7.40;;
42726;SDS011;28372;56.832;60.658;2023-06-10T00:15:05;18.20;;;8.77;;
42726;SDS011;28372;56.832;60.658;2023-06-10T00:17:35;17.60;;;10.23;;
42726;SDS011;28372;56.832;60.658;2023-06-10T00:20:09;23.63;;;12.40;;
42726;SDS011;28372;56.832;60.658;2023-06-10T00:22:40;20.88;;;13.10;;
42726;SDS011;28372;56.832;60.658;2023-06-10T00:25:13;18.35;;;12.27;;
42726;SDS011;28372;56.832;60.658;2023-06-10T00:27:41;25.48;;;14.77;;
42726;SDS011;28372;56.832;60.658;2023-06-10T00:30:08;20.33;;;13.20;;
42726;SDS011;28372;56.832;60.658;2023-06-10T00:32:37;26.45;;;14.25;;
42726;SDS011;28372;56.832;60.658;2023-06-10T00:35:05;20.88;;;12.40;;
42726;SDS011;28372;56.832;60.658;2023-06-10T00:37:34;17.60;;;10.95;;
42726;SDS011;28372;56.832;60.658;2023-06-10T00:40:03;11.88;;;7.50;;
42726;SDS011;28372;56.832;60.658;2023-06-10T00:42:32;12.45;;;8.10;;
42726;SDS011;28372;56.832;60.658;2023-06-10T00:45:00;17.33;;;10.00;;
42726;SDS011;28372;56.832;60.658;2023-06-10T00:47:30;13.02;;;8.18;;
42726;SDS011;28372;56.832;60.658;2023-06-10T00:49:59;14.10;;;8.27;;
42726;SDS011;28372;56.832;60.658;2023-06-10T00:52:30;12.68;;;6.47;;
42726;SDS011;28372;56.832;60.658;2023-06-10T00:54:58;10.90;;;6.30;;
42726;SDS011;28372;56.832;60.658;2023-06-10T00:57:27;9.20;;;5.50;;
42726;SDS011;28372;56.832;60.658;2023-06-10T00:59:56;7.78;;;5.40;;
42726;SDS011;28372;56.832;60.658;2023-06-10T01:02:26;10.43;;;5.90;;
42726;SDS011;28372;56.832;60.658;2023-06-10T01:04:58;11.98;;;6.60;;
42726;SDS011;28372;56.832;60.658;2023-06-10T01:07:55;9.98;;;5.47;;
42726;SDS011;28372;56.832;60.658;2023-06-10T01:10:29;10.63;;;6.38;;
42726;SDS011;28372;56.832;60.658;2023-06-10T01:13:16;12.00;;;7.45;;
42726;SDS011;28372;56.832;60.658;2023-06-10T01:15:45;10.65;;;6.95;;
42726;SDS011;28372;56.832;60.658;2023-06-10T01:18:12;12.75;;;7.13;;
42726;SDS011;28372;56.832;60.658;2023-06-10T01:20:43;14.98;;;7.90;;
42726;SDS011;28372;56.832;60.658;2023-06-10T01:23:11;18.33;;;7.60;;
42726;SDS011;28372;56.832;60.658;2023-06-10T01:25:59;13.63;;;8.10;;
42726;SDS011;28372;56.832;60.658;2023-06-10T01:34:01;14.07;;;7.80;;
42726;SDS011;28372;56.832;60.658;2023-06-10T01:36:33;14.60;;;8.68;;
42726;SDS011;28372;56.832;60.658;2023-06-10T01:39:04;17.27;;;8.63;;
42726;SDS011;28372;56.832;60.658;2023-06-10T01:41:34;14.13;;;8.73;;
42726;SDS011;28372;56.832;60.658;2023-06-10T01:44:03;15.18;;;8.55;;
42726;SDS011;28372;56.832;60.658;2023-06-10T01:46:31;15.25;;;7.90;;
42726;SDS011;28372;56.832;60.658;2023-06-10T01:48:59;16.48;;;8.63;;
42726;SDS011;28372;56.832;60.658;2023-06-10T01:51:27;14.63;;;8.07;;
42726;SDS011;28372;56.832;60.658;2023-06-10T01:53:55;14.55;;;7.82;;
42726;SDS011;28372;56.832;60.658;2023-06-10T01:56:22;14.57;;;7.90;;
42726;SDS011;28372;56.832;60.658;2023-06-10T01:58:50;14.05;;;7.55;;
42726;SDS011;28372;56.832;60.658;2023-06-10T02:01:18;14.65;;;7.80;;
42726;SDS011;28372;56.832;60.658;2023-06-10T02:03:46;13.60;;;7.57;;
42726;SDS011;28372;56.832;60.658;2023-06-10T02:06:14;16.00;;;7.80;;
42726;SDS011;28372;56.832;60.658;2023-06-10T02:08:42;12.02;;;7.43;;
42726;SDS011;28372;56.832;60.658;2023-06-10T02:11:10;13.65;;;8.10;;
42726;SDS011;28372;56.832;60.658;2023-06-10T02:13:38;14.75;;;7.65;;
42726;SDS011;28372;56.832;60.658;2023-06-10T02:16:06;14.25;;;8.68;;
42726;SDS011;28372;56.832;60.658;2023-06-10T02:18:34;17.58;;;8.55;;
42726;SDS011;28372;56.832;60.658;2023-06-10T02:21:02;16.48;;;8.73;;
42726;SDS011;28372;56.832;60.658;2023-06-10T02:23:30;16.85;;;9.38;;
42726;SDS011;28372;56.832;60.658;2023-06-10T02:25:57;19.65;;;10.05;;
42726;SDS011;28372;56.832;60.658;2023-06-10T02:28:25;24.13;;;10.30;;
42726;SDS011;28372;56.832;60.658;2023-06-10T02:30:53;20.05;;;9.45;;
42726;SDS011;28372;56.832;60.658;2023-06-10T02:33:21;22.17;;;10.65;;
42726;SDS011;28372;56.832;60.658;2023-06-10T02:35:49;17.15;;;6.57;;
42726;SDS011;28372;56.832;60.658;2023-06-10T02:38:17;12.88;;;6.40;;
42726;SDS011;28372;56.832;60.658;2023-06-10T02:40:45;13.93;;;6.28;;
42726;SDS011;28372;56.832;60.658;2023-06-10T02:43:13;11.68;;;6.07;;
42726;SDS011;28372;56.832;60.658;2023-06-10T02:45:44;10.57;;;5.70;;
42726;SDS011;28372;56.832;60.658;2023-06-10T02:48:13;10.27;;;5.15;;
42726;SDS011;28372;56.832;60.658;2023-06-10T02:50:40;11.60;;;5.22;;
42726;SDS011;28372;56.832;60.658;2023-06-10T02:53:28;9.40;;;4.95;;
42726;SDS011;28372;56.832;60.658;2023-06-10T02:56:03;10.02;;;5.07;;
42726;SDS011;28372;56.832;60.658;2023-06-10T02:58:32;11.35;;;5.50;;
42726;SDS011;28372;56.832;60.658;2023-06-10T03:01:00;9.68;;;5.10;;
42726;SDS011;28372;56.832;60.658;2023-06-10T03:03:35;8.38;;;4.78;;
42726;SDS011;28372;56.832;60.658;2023-06-10T03:06:12;10.43;;;4.97;;
42726;SDS011;28372;56.832;60.658;2023-06-10T03:08:41;9.05;;;4.70;;
42726;SDS011;28372;56.832;60.658;2023-06-10T03:11:13;6.50;;;4.00;;
42726;SDS011;28372;56.832;60.658;2023-06-10T03:13:41;9.40;;;4.43;;
42726;SDS011;28372;56.832;60.658;2023-06-10T03:16:12;7.50;;;3.83;;
42726;SDS011;28372;56.832;60.658;2023-06-10T03:18:41;11.85;;;3.90;;
42726;SDS011;28372;56.832;60.658;2023-06-10T03:21:10;10.07;;;3.67;;
42726;SDS011;28372;56.832;60.658;2023-06-10T03:23:40;7.65;;;3.72;;
42726;SDS011;28372;56.832;60.658;2023-06-10T03:26:10;8.50;;;3.28;;
42726;SDS011;28372;56.832;60.658;2023-06-10T03:28:44;5.78;;;3.28;;
42726;SDS011;28372;56.832;60.658;2023-06-10T03:31:12;5.57;;;3.50;;
42726;SDS011;28372;56.832;60.658;2023-06-10T03:33:40;5.68;;;2.90;;
42726;SDS011;28372;56.832;60.658;2023-06-10T03:36:08;8.45;;;3.35;;
42726;SDS011;28372;56.832;60.658;2023-06-10T03:38:37;6.50;;;3.28;;
42726;SDS011;28372;56.832;60.658;2023-06-10T03:41:07;5.93;;;2.50;;
42726;SDS011;28372;56.832;60.658;2023-06-10T03:43:38;6.10;;;2.58;;
42726;SDS011;28372;56.832;60.658;2023-06-10T03:46:08;6.35;;;2.50;;
42726;SDS011;28372;56.832;60.658;2023-06-10T03:48:37;8.38;;;2.50;;
42726;SDS011;28372;56.832;60.658;2023-06-10T03:51:06;7.40;;;2.30;;
42726;SDS011;28372;56.832;60.658;2023-06-10T03:53:34;8.82;;;2.65;;
42726;SDS011;28372;56.832;60.658;2023-06-10T03:56:02;8.68;;;2.40;;
42726;SDS011;28372;56.832;60.658;2023-06-10T03:58:30;4.97;;;2.10;;
42726;SDS011;28372;56.832;60.658;2023-06-10T04:00:58;7.35;;;2.10;;
42726;SDS011;28372;56.832;60.658;2023-06-10T04:03:32;5.82;;;1.90;;
42726;SDS011;28372;56.832;60.658;2023-06-10T04:06:00;6.28;;;2.00;;
42726;SDS011;28372;56.832;60.658;2023-06-10T04:08:29;4.70;;;2.10;;
42726;SDS011;28372;56.832;60.658;2023-06-10T04:10:59;3.72;;;1.88;;
42726;SDS011;28372;56.832;60.658;2023-06-10T04:13:27;5.55;;;2.03;;
42726;SDS011;28372;56.832;60.658;2023-06-10T04:15:58;4.07;;;1.48;;
42726;SDS011;28372;56.832;60.658;2023-06-10T04:18:26;4.00;;;1.70;;
42726;SDS011;28372;56.832;60.658;2023-06-10T04:20:58;3.53;;;1.95;;
42726;SDS011;28372;56.832;60.658;2023-06-10T04:23:26;5.05;;;1.67;;
42726;SDS011;28372;56.832;60.658;2023-06-10T04:25:54;4.68;;;1.70;;
42726;SDS011;28372;56.832;60.658;2023-06-10T04:28:23;5.40;;;1.85;;
42726;SDS011;28372;56.832;60.658;2023-06-10T04:30:52;7.13;;;1.85;;
42726;SDS011;28372;56.832;60.658;2023-06-10T04:33:21;4.07;;;1.63;;
42726;SDS011;28372;56.832;60.658;2023-06-10T04:35:49;4.75;;;1.42;;
42726;SDS011;28372;56.832;60.658;2023-06-10T04:38:20;3.80;;;1.70;;
42726;SDS011;28372;56.832;60.658;2023-06-10T04:40:48;3.83;;;1.75;;
42726;SDS011;28372;56.832;60.658;2023-06-10T04:43:18;4.65;;;1.30;;
42726;SDS011;28372;56.832;60.658;2023-06-10T04:45:46;3.97;;;1.70;;
42726;SDS011;28372;56.832;60.658;2023-06-10T04:48:14;3.35;;;1.38;;
42726;SDS011;28372;56.832;60.658;2023-06-10T04:50:42;5.93;;;1.60;;
42726;SDS011;28372;56.832;60.658;2023-06-10T04:53:10;5.63;;;1.40;;
42726;SDS011;28372;56.832;60.658;2023-06-10T04:55:42;2.63;;;1.27;;
42726;SDS011;28372;56.832;60.658;2023-06-10T04:58:11;4.95;;;1.42;;
42726;SDS011;28372;56.832;60.658;2023-06-10T05:00:38;3.38;;;1.30;;
42726;SDS011;28372;56.832;60.658;2023-06-10T05:03:06;2.95;;;1.40;;
42726;SDS011;28372;56.832;60.658;2023-06-10T05:05:34;2.22;;;1.10;;
42726;SDS011;28372;56.832;60.658;2023-06-10T05:08:02;4.78;;;1.40;;
42726;SDS011;28372;56.832;60.658;2023-06-10T05:10:34;4.55;;;1.73;;
42726;SDS011;28372;56.832;60.658;2023-06-10T05:13:02;3.83;;;1.27;;
42726;SDS011;28372;56.832;60.658;2023-06-10T05:15:30;5.05;;;1.52;;
42726;SDS011;28372;56.832;60.658;2023-06-10T05:17:58;5.13;;;1.30;;
42726;SDS011;28372;56.832;60.658;2023-06-10T05:20:26;4.25;;;1.25;;
42726;SDS011;28372;56.832;60.658;2023-06-10T05:22:55;6.32;;;1.45;;
42726;SDS011;28372;56.832;60.658;2023-06-10T05:25:23;4.30;;;1.50;;
42726;SDS011;28372;56.832;60.658;2023-06-10T05:27:52;7.15;;;1.60;;
42726;SDS011;28372;56.832;60.658;2023-06-10T05:30:20;3.58;;;1.60;;
42726;SDS011;28372;56.832;60.658;2023-06-10T05:32:48;6.72;;;1.80;;
42726;SDS011;28372;56.832;60.658;2023-06-10T05:35:16;3.55;;;1.50;;
42726;SDS011;28372;56.832;60.658;2023-06-10T05:37:44;5.25;;;1.50;;
42726;SDS011;28372;56.832;60.658;2023-06-10T05:40:12;5.07;;;1.42;;
42726;SDS011;28372;56.832;60.658;2023-06-10T05:42:40;4.63;;;1.30;;
42726;SDS011;28372;56.832;60.658;2023-06-10T05:45:07;3.95;;;1.23;;
42726;SDS011;28372;56.832;60.658;2023-06-10T05:47:36;4.25;;;1.30;;
42726;SDS011;28372;56.832;60.658;2023-06-10T05:50:04;2.72;;;1.10;;
42726;SDS011;28372;56.832;60.658;2023-06-10T05:52:36;1.63;;;1.05;;
42726;SDS011;28372;56.832;60.658;2023-06-10T05:55:04;3.90;;;1.40;;
42726;SDS011;28372;56.832;60.658;2023-06-10T05:57:33;4.45;;;1.35;;
42726;SDS011;28372;56.832;60.658;2023-06-10T06:00:01;4.05;;;1.38;;
42726;SDS011;28372;56.832;60.658;2023-06-10T06:02:38;4.57;;;1.40;;
42726;SDS011;28372;56.832;60.658;2023-06-10T06:05:06;3.67;;;1.40;;
42726;SDS011;28372;56.832;60.658;2023-06-10T06:07:34;5.07;;;1.42;;
42726;SDS011;28372;56.832;60.658;2023-06-10T06:10:02;2.80;;;1.50;;
42726;SDS011;28372;56.832;60.658;2023-06-10T06:12:30;4.07;;;1.42;;
42726;SDS011;28372;56.832;60.658;2023-06-10T06:14:58;3.05;;;1.60;;
42726;SDS011;28372;56.832;60.658;2023-06-10T06:17:26;3.80;;;1.35;;
42726;SDS011;28372;56.832;60.658;2023-06-10T06:19:53;3.05;;;1.27;;
42726;SDS011;28372;56.832;60.658;2023-06-10T06:22:21;4.57;;;1.35;;
42726;SDS011;28372;56.832;60.658;2023-06-10T06:24:49;3.40;;;1.30;;
42726;SDS011;28372;56.832;60.658;2023-06-10T06:27:18;4.07;;;1.30;;
42726;SDS011;28372;56.832;60.658;2023-06-10T06:29:45;5.28;;;1.70;;
42726;SDS011;28372;56.832;60.658;2023-06-10T06:32:14;5.00;;;1.38;;
42726;SDS011;28372;56.832;60.658;2023-06-10T06:34:42;3.97;;;1.52;;
42726;SDS011;28372;56.832;60.658;2023-06-10T06:37:09;3.97;;;1.50;;
42726;SDS011;28372;56.832;60.658;2023-06-10T06:39:40;5.72;;;1.55;;
42726;SDS011;28372;56.832;60.658;2023-06-10T06:42:08;3.22;;;1.52;;
42726;SDS011;28372;56.832;60.658;2023-06-10T06:44:59;5.00;;;2.15;;
42726;SDS011;28372;56.832;60.658;2023-06-10T06:47:30;4.47;;;1.50;;
42726;SDS011;28372;56.832;60.658;2023-06-10T06:49:58;4.40;;;1.33;;
42726;SDS011;28372;56.832;60.658;2023-06-10T06:52:25;3.85;;;1.30;;
42726;SDS011;28372;56.832;60.658;2023-06-10T06:54:53;2.50;;;1.25;;
42726;SDS011;28372;56.832;60.658;2023-06-10T06:57:21;3.70;;;1.25;;
42726;SDS011;28372;56.832;60.658;2023-06-10T06:59:50;3.83;;;1.40;;
42726;SDS011;28372;56.832;60.658;2023-06-10T07:02:18;7.32;;;1.70;;
42726;SDS011;28372;56.832;60.658;2023-06-10T07:04:46;4.25;;;1.70;;
42726;SDS011;28372;56.832;60.658;2023-06-10T07:07:16;4.05;;;1.77;;
42726;SDS011;28372;56.832;60.658;2023-06-10T07:09:44;4.05;;;1.50;;
42726;SDS011;28372;56.832;60.658;2023-06-10T07:12:12;3.25;;;1.40;;
42726;SDS011;28372;56.832;60.658;2023-06-10T07:14:39;7.25;;;1.65;;
42726;SDS011;28372;56.832;60.658;2023-06-10T07:17:07;3.30;;;1.48;;
42726;SDS011;28372;56.832;60.658;2023-06-10T07:19:35;3.53;;;1.30;;
42726;SDS011;28372;56.832;60.658;2023-06-10T07:22:03;5.25;;;1.40;;
42726;SDS011;28372;56.832;60.658;2023-06-10T07:24:31;3.05;;;1.13;;
42726;SDS011;28372;56.832;60.658;2023-06-10T07:26:58;3.28;;;1.00;;
42726;SDS011;28372;56.832;60.658;2023-06-10T07:29:26;2.63;;;1.10;;
42726;SDS011;28372;56.832;60.658;2023-06-10T07:31:54;1.83;;;1.00;;
42726;SDS011;28372;56.832;60.658;2023-06-10T07:34:22;2.67;;;1.38;;
42726;SDS011;28372;56.832;60.658;2023-06-10T07:36:49;2.67;;;1.30;;
42726;SDS011;28372;56.832;60.658;2023-06-10T07:39:17;2.20;;;1.10;;
42726;SDS011;28372;56.832;60.658;2023-06-10T07:41:45;3.72;;;1.10;;
42726;SDS011;28372;56.832;60.658;2023-06-10T07:44:13;2.78;;;1.13;;
42726;SDS011;28372;56.832;60.658;2023-06-10T07:46:40;2.55;;;1.02;;
42726;SDS011;28372;56.832;60.658;2023-06-10T07:49:08;3.10;;;1.30;;
42726;SDS011;28372;56.832;60.658;2023-06-10T07:51:36;2.67;;;1.13;;
42726;SDS011;28372;56.832;60.658;2023-06-10T07:54:04;3.75;;;1.40;;
42726;SDS011;28372;56.832;60.658;2023-06-10T07:56:31;3.78;;;1.50;;
42726;SDS011;28372;56.832;60.658;2023-06-10T07:58:59;5.50;;;1.50;;
42726;SDS011;28372;56.832;60.658;2023-06-10T08:01:27;4.28;;;1.20;;
42726;SDS011;28372;56.832;60.658;2023-06-10T08:03:54;3.88;;;1.40;;
42726;SDS011;28372;56.832;60.658;2023-06-10T08:06:22;3.78;;;1.45;;
42726;SDS011;28372;56.832;60.658;2023-06-10T08:08:50;5.00;;;1.70;;
42726;SDS011;28372;56.832;60.658;2023-06-10T08:11:18;4.35;;;1.52;;
42726;SDS011;28372;56.832;60.658;2023-06-10T08:13:45;4.50;;;1.30;;
42726;SDS011;28372;56.832;60.658;2023-06-10T08:16:13;3.83;;;1.35;;
42726;SDS011;28372;56.832;60.658;2023-06-10T08:18:41;3.33;;;1.40;;
42726;SDS011;28372;56.832;60.658;2023-06-10T08:21:09;3.30;;;1.33;;
42726;SDS011;28372;56.832;60.658;2023-06-10T08:23:36;3.75;;;1.35;;
42726;SDS011;28372;56.832;60.658;2023-06-10T08:26:04;4.80;;;1.60;;
42726;SDS011;28372;56.832;60.658;2023-06-10T08:28:32;5.50;;;1.58;;
42726;SDS011;28372;56.832;60.658;2023-06-10T08:31:00;8.27;;;2.10;;
42726;SDS011;28372;56.832;60.658;2023-06-10T08:33:28;4.63;;;1.77;;
42726;SDS011;28372;56.832;60.658;2023-06-10T08:35:55;5.10;;;1.90;;
42726;SDS011;28372;56.832;60.658;2023-06-10T08:38:23;3.17;;;1.83;;
42726;SDS011;28372;56.832;60.658;2023-06-10T08:40:51;4.05;;;1.98;;
42726;SDS011;28372;56.832;60.658;2023-06-10T08:46:07;3.75;;;2.00;;
42726;SDS011;28372;56.832;60.658;2023-06-10T08:48:39;3.55;;;2.05;;
42726;SDS011;28372;56.832;60.658;2023-06-10T08:51:10;4.70;;;2.08;;
42726;SDS011;28372;56.832;60.658;2023-06-10T08:53:41;5.20;;;2.20;;
42726;SDS011;28372;56.832;60.658;2023-06-10T08:56:18;5.00;;;2.15;;
42726;SDS011;28372;56.832;60.658;2023-06-10T08:58:46;6.38;;;2.20;;
42726;SDS011;28372;56.832;60.658;2023-06-10T09:01:15;5.43;;;2.20;;
42726;SDS011;28372;56.832;60.658;2023-06-10T09:03:44;5.22;;;2.17;;
42726;SDS011;28372;56.832;60.658;2023-06-10T09:06:11;7.05;;;2.50;;
42726;SDS011;28372;56.832;60.658;2023-06-10T09:08:40;7.10;;;1.98;;
42726;SDS011;28372;56.832;60.658;2023-06-10T09:11:09;5.53;;;1.90;;
42726;SDS011;28372;56.832;60.658;2023-06-10T09:13:37;7.60;;;2.00;;
42726;SDS011;28372;56.832;60.658;2023-06-10T09:16:04;5.18;;;2.25;;
42726;SDS011;28372;56.832;60.658;2023-06-10T09:18:32;5.85;;;2.10;;
42726;SDS011;28372;56.832;60.658;2023-06-10T09:21:01;6.70;;;1.90;;
42726;SDS011;28372;56.832;60.658;2023-06-10T09:23:29;5.57;;;2.20;;
42726;SDS011;28372;56.832;60.658;2023-06-10T09:25:58;4.68;;;2.28;;
42726;SDS011;28372;56.832;60.658;2023-06-10T09:28:26;5.72;;;2.10;;
42726;SDS011;28372;56.832;60.658;2023-06-10T09:31:03;4.25;;;2.47;;
42726;SDS011;28372;56.832;60.658;2023-06-10T09:33:33;8.35;;;2.50;;
42726;SDS011;28372;56.832;60.658;2023-06-10T09:36:05;3.60;;;1.73;;
42726;SDS011;28372;56.832;60.658;2023-06-10T09:38:33;6.72;;;1.83;;
42726;SDS011;28372;56.832;60.658;2023-06-10T09:41:02;4.97;;;2.25;;
42726;SDS011;28372;56.832;60.658;2023-06-10T09:43:43;5.85;;;1.92;;
42726;SDS011;28372;56.832;60.658;2023-06-10T09:46:17;4.20;;;2.20;;
42726;SDS011;28372;56.832;60.658;2023-06-10T09:48:46;3.40;;;2.05;;
42726;SDS011;28372;56.832;60.658;2023-06-10T09:51:15;3.05;;;2.10;;
42726;SDS011;28372;56.832;60.658;2023-06-10T09:53:52;5.05;;;1.90;;
42726;SDS011;28372;56.832;60.658;2023-06-10T09:56:21;4.03;;;1.77;;
42726;SDS011;28372;56.832;60.658;2023-06-10T09:58:52;7.82;;;2.30;;
42726;SDS011;28372;56.832;60.658;2023-06-10T10:01:20;4.47;;;2.47;;
42726;SDS011;28372;56.832;60.658;2023-06-10T10:03:49;2.65;;;1.25;;
42726;SDS011;28372;56.832;60.658;2023-06-10T10:06:18;4.55;;;2.30;;
42726;SDS011;28372;56.832;60.658;2023-06-10T10:08:48;7.05;;;2.05;;
42726;SDS011;28372;56.832;60.658;2023-06-10T10:11:17;6.97;;;2.30;;
42726;SDS011;28372;56.832;60.658;2023-06-10T10:13:46;7.90;;;2.45;;
42726;SDS011;28372;56.832;60.658;2023-06-10T10:16:30;4.60;;;2.20;;
42726;SDS011;28372;56.832;60.658;2023-06-10T10:19:15;4.97;;;2.42;;
42726;SDS011;28372;56.832;60.658;2023-06-10T10:22:10;4.78;;;2.30;;
42726;SDS011;28372;56.832;60.658;2023-06-10T10:24:42;5.78;;;2.60;;
42726;SDS011;28372;56.832;60.658;2023-06-10T10:27:27;5.35;;;1.98;;
42726;SDS011;28372;56.832;60.658;2023-06-10T10:29:55;4.55;;;2.20;;
42726;SDS011;28372;56.832;60.658;2023-06-10T10:32:32;4.68;;;2.38;;
42726;SDS011;28372;56.832;60.658;2023-06-10T10:37:42;4.05;;;2.40;;
42726;SDS011;28372;56.832;60.658;2023-06-10T10:40:11;7.72;;;2.78;;
42726;SDS011;28372;56.832;60.658;2023-06-10T10:42:39;13.23;;;2.90;;
42726;SDS011;28372;56.832;60.658;2023-06-10T10:45:08;7.32;;;2.50;;
42726;SDS011;28372;56.832;60.658;2023-06-10T10:47:37;4.78;;;2.50;;
42726;SDS011;28372;56.832;60.658;2023-06-10T10:50:16;4.82;;;2.53;;
42726;SDS011;28372;56.832;60.658;2023-06-10T10:52:58;9.60;;;2.63;;
42726;SDS011;28372;56.832;60.658;2023-06-10T10:55:28;6.43;;;2.40;;
42726;SDS011;28372;56.832;60.658;2023-06-10T10:58:06;7.35;;;2.30;;
42726;SDS011;28372;56.832;60.658;2023-06-10T11:03:06;5.60;;;2.20;;
42726;SDS011;28372;56.832;60.658;2023-06-10T11:05:39;5.45;;;2.65;;
42726;SDS011;28372;56.832;60.658;2023-06-10T11:08:09;4.65;;;2.15;;
42726;SDS011;28372;56.832;60.658;2023-06-10T11:10:37;3.78;;;1.90;;
42726;SDS011;28372;56.832;60.658;2023-06-10T11:13:21;6.13;;;3.28;;
42726;SDS011;28372;56.832;60.658;2023-06-10T11:15:50;6.80;;;4.25;;
42726;SDS011;28372;56.832;60.658;2023-06-10T11:18:30;6.70;;;3.20;;
42726;SDS011;28372;56.832;60.658;2023-06-10T11:21:06;6.38;;;2.60;;
42726;SDS011;28372;56.832;60.658;2023-06-10T11:31:29;7.70;;;2.10;;
42726;SDS011;28372;56.832;60.658;2023-06-10T11:34:02;7.00;;;2.25;;
42726;SDS011;28372;56.832;60.658;2023-06-10T11:36:32;7.13;;;2.22;;
42726;SDS011;28372;56.832;60.658;2023-06-10T11:39:04;2.85;;;1.80;;
42726;SDS011;28372;56.832;60.658;2023-06-10T11:41:33;5.68;;;2.20;;
42726;SDS011;28372;56.832;60.658;2023-06-10T11:44:13;6.80;;;2.13;;
42726;SDS011;28372;56.832;60.658;2023-06-10T11:46:47;6.00;;;1.95;;
42726;SDS011;28372;56.832;60.658;2023-06-10T11:49:16;3.10;;;1.80;;
42726;SDS011;28372;56.832;60.658;2023-06-10T11:51:45;5.55;;;1.88;;
42726;SDS011;28372;56.832;60.658;2023-06-10T11:54:17;3.55;;;1.80;;
42726;SDS011;28372;56.832;60.658;2023-06-10T11:56:45;5.28;;;2.15;;
42726;SDS011;28372;56.832;60.658;2023-06-10T11:59:13;4.88;;;2.10;;
42726;SDS011;28372;56.832;60.658;2023-06-10T12:01:42;5.53;;;1.80;;
42726;SDS011;28372;56.832;60.658;2023-06-10T12:04:13;4.80;;;1.88;;
42726;SDS011;28372;56.832;60.658;2023-06-10T12:06:47;3.88;;;2.03;;
42726;SDS011;28372;56.832;60.658;2023-06-10T12:20:09;8.50;;;2.20;;
42726;SDS011;28372;56.832;60.658;2023-06-10T12:22:51;6.22;;;2.30;;
42726;SDS011;28372;56.832;60.658;2023-06-10T12:25:24;7.68;;;2.70;;
42726;SDS011;28372;56.832;60.658;2023-06-10T12:27:55;5.82;;;2.05;;
42726;SDS011;28372;56.832;60.658;2023-06-10T12:30:24;9.48;;;2.35;;
42726;SDS011;28372;56.832;60.658;2023-06-10T12:32:53;7.55;;;2.40;;
42726;SDS011;28372;56.832;60.658;2023-06-10T12:35:25;5.95;;;2.30;;
42726;SDS011;28372;56.832;60.658;2023-06-10T12:37:58;7.82;;;2.22;;
42726;SDS011;28372;56.832;60.658;2023-06-10T12:40:30;9.80;;;2.60;;
42726;SDS011;28372;56.832;60.658;2023-06-10T12:42:59;7.13;;;2.97;;
42726;SDS011;28372;56.832;60.658;2023-06-10T12:45:28;7.28;;;2.45;;
42726;SDS011;28372;56.832;60.658;2023-06-10T12:48:04;7.43;;;2.60;;
42726;SDS011;28372;56.832;60.658;2023-06-10T12:50:40;5.93;;;2.58;;
42726;SDS011;28372;56.832;60.658;2023-06-10T12:53:09;4.90;;;2.63;;
42726;SDS011;28372;56.832;60.658;2023-06-10T12:55:39;7.25;;;2.65;;
42726;SDS011;28372;56.832;60.658;2023-06-10T12:58:07;8.38;;;2.88;;
42726;SDS011;28372;56.832;60.658;2023-06-10T13:00:34;5.53;;;2.70;;
42726;SDS011;28372;56.832;60.658;2023-06-10T13:03:03;7.93;;;2.95;;
42726;SDS011;28372;56.832;60.658;2023-06-10T13:05:33;10.98;;;3.60;;
42726;SDS011;28372;56.832;60.658;2023-06-10T13:08:01;9.93;;;3.38;;
42726;SDS011;28372;56.832;60.658;2023-06-10T13:10:29;7.10;;;3.42;;
42726;SDS011;28372;56.832;60.658;2023-06-10T13:12:57;8.32;;;3.15;;
42726;SDS011;28372;56.832;60.658;2023-06-10T13:15:24;6.15;;;3.00;;
42726;SDS011;28372;56.832;60.658;2023-06-10T13:17:53;7.72;;;3.63;;
42726;SDS011;28372;56.832;60.658;2023-06-10T13:20:21;8.35;;;3.20;;
42726;SDS011;28372;56.832;60.658;2023-06-10T13:22:49;6.70;;;3.35;;
42726;SDS011;28372;56.832;60.658;2023-06-10T13:25:17;7.45;;;3.38;;
42726;SDS011;28372;56.832;60.658;2023-06-10T13:27:45;6.85;;;3.33;;
42726;SDS011;28372;56.832;60.658;2023-06-10T13:30:13;9.82;;;3.20;;
42726;SDS011;28372;56.832;60.658;2023-06-10T13:32:41;7.63;;;3.70;;
42726;SDS011;28372;56.832;60.658;2023-06-10T13:35:08;7.00;;;3.70;;
42726;SDS011;28372;56.832;60.658;2023-06-10T13:37:37;8.13;;;4.40;;
42726;SDS011;28372;56.832;60.658;2023-06-10T13:40:05;7.25;;;4.00;;
42726;SDS011;28372;56.832;60.658;2023-06-10T13:42:35;10.60;;;4.68;;
42726;SDS011;28372;56.832;60.658;2023-06-10T13:45:03;11.50;;;4.00;;
42726;SDS011;28372;56.832;60.658;2023-06-10T13:47:32;7.50;;;4.13;;
42726;SDS011;28372;56.832;60.658;2023-06-10T13:50:00;8.40;;;4.45;;
42726;SDS011;28372;56.832;60.658;2023-06-10T13:52:29;13.05;;;5.13;;
42726;SDS011;28372;56.832;60.658;2023-06-10T13:54:57;15.52;;;5.70;;
42726;SDS011;28372;56.832;60.658;2023-06-10T13:57:25;11.60;;;5.05;;
42726;SDS011;28372;56.832;60.658;2023-06-10T13:59:53;10.25;;;5.18;;
42726;SDS011;28372;56.832;60.658;2023-06-10T14:02:20;9.85;;;5.10;;
42726;SDS011;28372;56.832;60.658;2023-06-10T14:04:48;9.75;;;4.68;;
42726;SDS011;28372;56.832;60.658;2023-06-10T14:07:16;7.65;;;4.35;;
42726;SDS011;28372;56.832;60.658;2023-06-10T14:09:44;9.75;;;4.47;;
42726;SDS011;28372;56.832;60.658;2023-06-10T14:12:12;6.72;;;3.65;;
42726;SDS011;28372;56.832;60.658;2023-06-10T14:14:40;6.18;;;3.60;;
42726;SDS011;28372;56.832;60.658;2023-06-10T14:17:07;5.90;;;3.13;;
42726;SDS011;28372;56.832;60.658;2023-06-10T14:19:35;6.68;;;3.40;;
42726;SDS011;28372;56.832;60.658;2023-06-10T14:22:03;6.05;;;3.17;;
42726;SDS011;28372;56.832;60.658;2023-06-10T14:24:35;6.60;;;3.42;;
42726;SDS011;28372;56.832;60.658;2023-06-10T14:27:05;6.38;;;3.45;;
42726;SDS011;28372;56.832;60.658;2023-06-10T14:29:33;7.25;;;3.72;;
42726;SDS011;28372;56.832;60.658;2023-06-10T14:32:02;7.47;;;3.50;;
42726;SDS011;28372;56.832;60.658;2023-06-10T14:34:34;6.25;;;3.83;;
42726;SDS011;28372;56.832;60.658;2023-06-10T14:37:02;8.23;;;3.97;;
42726;SDS011;28372;56.832;60.658;2023-06-10T14:39:34;9.52;;;4.18;;
42726;SDS011;28372;56.832;60.658;2023-06-10T14:42:02;6.85;;;3.97;;
42726;SDS011;28372;56.832;60.658;2023-06-10T14:44:30;6.45;;;4.20;;
42726;SDS011;28372;56.832;60.658;2023-06-10T14:46:58;7.20;;;4.07;;
42726;SDS011;28372;56.832;60.658;2023-06-10T14:49:26;7.10;;;4.40;;
42726;SDS011;28372;56.832;60.658;2023-06-10T14:51:54;8.07;;;4.10;;
42726;SDS011;28372;56.832;60.658;2023-06-10T14:54:21;7.15;;;3.85;;
42726;SDS011;28372;56.832;60.658;2023-06-10T14:56:49;6.90;;;3.88;;
42726;SDS011;28372;56.832;60.658;2023-06-10T14:59:17;6.97;;;4.40;;
42726;SDS011;28372;56.832;60.658;2023-06-10T15:01:45;7.30;;;4.25;;
42726;SDS011;28372;56.832;60.658;2023-06-10T15:04:12;8.10;;;4.50;;
42726;SDS011;28372;56.832;60.658;2023-06-10T15:06:40;9.38;;;4.72;;
42726;SDS011;28372;56.832;60.658;2023-06-10T15:09:09;7.43;;;4.72;;
42726;SDS011;28372;56.832;60.658;2023-06-10T15:11:37;7.53;;;4.47;;
42726;SDS011;28372;56.832;60.658;2023-06-10T15:14:05;7.25;;;4.30;;
42726;SDS011;28372;56.832;60.658;2023-06-10T15:16:33;8.77;;;4.70;;